createdAt,value
2017-09-22T00:10:19.004Z,14.60
2017-09-22T00:12:47.232Z,18.60
2017-09-22T00:15:15.467Z,15.25
2017-09-22T00:17:43.710Z,14.87
2017-09-22T00:20:11.990Z,15.07
2017-09-22T00:22:40.954Z,14.02
2017-09-22T00:25:09.182Z,14.40
2017-09-22T00:27:37.419Z,13.68
2017-09-22T00:30:05.683Z,14.05
2017-09-22T00:32:34.909Z,14.05
2017-09-22T00:35:03.128Z,13.02
2017-09-22T00:37:31.356Z,14.02
2017-09-22T00:40:00.321Z,14.15
2017-09-22T00:42:28.941Z,14.43
2017-09-22T00:44:57.199Z,15.88
2017-09-22T00:47:26.199Z,14.63
2017-09-22T00:49:55.182Z,13.62
2017-09-22T00:52:24.243Z,15.07
2017-09-22T00:54:52.816Z,14.80
2017-09-22T00:57:21.056Z,13.73
2017-09-22T00:59:49.258Z,13.90
2017-09-22T01:02:17.487Z,14.73
2017-09-22T01:04:45.735Z,14.02
2017-09-22T01:07:13.955Z,15.02
2017-09-22T01:09:42.246Z,14.73
2017-09-22T01:12:10.454Z,14.18
2017-09-22T01:14:38.690Z,14.07
2017-09-22T01:17:06.929Z,13.80
2017-09-22T01:19:35.168Z,13.30
2017-09-22T01:22:03.398Z,13.80
2017-09-22T01:24:32.160Z,14.10
2017-09-22T01:27:01.147Z,13.30
2017-09-22T01:29:30.127Z,14.32
2017-09-22T01:31:58.375Z,14.60
2017-09-22T01:34:26.628Z,13.27
2017-09-22T01:36:54.867Z,13.13
2017-09-22T01:39:23.905Z,13.45
2017-09-22T01:41:52.155Z,13.23
2017-09-22T01:44:20.480Z,14.48
2017-09-22T01:46:48.810Z,14.38
2017-09-22T01:49:17.055Z,14.52
2017-09-22T01:51:46.176Z,13.65
2017-09-22T01:54:14.435Z,13.70
2017-09-22T01:56:43.394Z,13.70
2017-09-22T01:59:11.649Z,13.73
2017-09-22T02:01:39.896Z,13.43
2017-09-22T02:04:08.102Z,13.35
2017-09-22T02:06:36.373Z,14.35
2017-09-22T02:09:04.628Z,14.07
2017-09-22T02:11:32.889Z,14.73
2017-09-22T02:14:01.900Z,14.25
2017-09-22T02:16:30.183Z,13.32
2017-09-22T02:18:58.448Z,14.20
2017-09-22T02:21:26.697Z,13.93
2017-09-22T02:23:54.916Z,13.93
2017-09-22T02:26:23.114Z,14.63
2017-09-22T02:28:51.317Z,14.23
2017-09-22T02:31:19.575Z,13.07
2017-09-22T02:33:48.573Z,14.30
2017-09-22T02:36:16.772Z,14.95
2017-09-22T02:38:44.992Z,13.80
2017-09-22T02:41:13.248Z,14.73
2017-09-22T02:43:41.497Z,14.45
2017-09-22T02:46:09.763Z,14.18
2017-09-22T02:48:38.069Z,13.57
2017-09-22T02:51:06.290Z,14.95
2017-09-22T02:53:34.520Z,14.38
2017-09-22T02:56:02.765Z,14.95
2017-09-22T02:58:30.978Z,13.95
2017-09-22T03:00:59.211Z,14.30
2017-09-22T03:03:27.540Z,14.93
2017-09-22T03:05:55.801Z,14.85
2017-09-22T03:08:24.030Z,14.35
2017-09-22T03:10:53.075Z,13.95
2017-09-22T03:13:21.285Z,13.62
2017-09-22T03:15:50.316Z,14.48
2017-09-22T03:18:18.648Z,14.40
2017-09-22T03:20:47.987Z,14.85
2017-09-22T03:23:16.220Z,15.05
2017-09-22T03:25:44.515Z,15.80
2017-09-22T03:28:12.785Z,14.77
2017-09-22T03:30:41.037Z,15.43
2017-09-22T03:33:09.307Z,14.35
2017-09-22T03:35:37.571Z,14.48
2017-09-22T03:38:07.136Z,15.57
2017-09-22T03:40:35.410Z,15.82
2017-09-22T05:08:32.503Z,16.12
2017-09-22T05:11:01.633Z,16.10
2017-09-22T05:13:29.931Z,16.20
2017-09-22T05:15:58.151Z,15.32
2017-09-22T05:18:26.975Z,15.57
2017-09-22T05:20:55.212Z,16.90
2017-09-22T05:23:23.486Z,15.73
2017-09-22T05:25:51.706Z,15.75
2017-09-22T05:28:19.916Z,16.60
2017-09-22T05:30:49.029Z,15.50
2017-09-22T05:33:17.268Z,15.75
2017-09-22T05:35:45.623Z,14.82
2017-09-22T05:38:14.997Z,15.25
2017-09-22T05:40:44.543Z,15.43
2017-09-22T05:43:25.244Z,15.20
2017-09-22T05:45:54.523Z,17.08
2017-09-22T05:48:23.704Z,16.67
2017-09-22T05:50:51.987Z,15.38
2017-09-22T05:53:21.201Z,15.25
2017-09-22T05:55:53.212Z,15.02
2017-09-22T05:58:27.538Z,16.37
2017-09-22T06:00:55.817Z,16.60
2017-09-22T06:03:24.049Z,15.48
2017-09-22T06:05:52.376Z,17.30
2017-09-22T06:08:26.544Z,16.00
2017-09-22T06:10:55.229Z,16.42
2017-09-22T06:13:24.899Z,16.27
2017-09-22T06:15:53.098Z,17.25
2017-09-22T06:18:21.387Z,17.83
2017-09-22T06:20:49.619Z,16.90
2017-09-22T06:23:18.708Z,15.15
2017-09-22T06:25:48.784Z,17.52
2017-09-22T06:28:17.480Z,17.33
2017-09-22T06:30:45.678Z,17.92
2017-09-22T06:33:13.918Z,17.25
2017-09-22T06:35:42.127Z,18.10
2017-09-22T06:38:11.295Z,18.40
2017-09-22T06:40:39.568Z,18.65
2017-09-22T06:43:07.948Z,18.75
2017-09-22T06:45:36.374Z,16.90
2017-09-22T06:48:06.013Z,16.92
2017-09-22T06:50:34.308Z,18.85
2017-09-22T06:53:02.512Z,18.35
2017-09-22T06:55:31.525Z,19.45
2017-09-22T06:58:00.474Z,18.23
2017-09-22T07:00:28.711Z,18.58
2017-09-22T07:02:57.723Z,19.25
2017-09-22T07:05:25.991Z,18.58
2017-09-22T07:07:54.350Z,19.75
2017-09-22T07:10:24.127Z,18.10
2017-09-22T07:12:52.415Z,18.70
2017-09-22T07:15:21.528Z,18.15
2017-09-22T07:17:50.512Z,18.15
2017-09-22T07:20:19.498Z,20.35
2017-09-22T07:22:48.509Z,17.87
2017-09-22T07:25:17.630Z,17.90
2017-09-22T07:27:46.290Z,17.98
2017-09-22T07:30:14.604Z,20.42
2017-09-22T07:32:42.849Z,20.88
2017-09-22T07:35:11.070Z,20.17
2017-09-22T07:37:39.320Z,20.58
2017-09-22T07:40:07.553Z,19.05
2017-09-22T07:42:36.545Z,19.08
2017-09-22T07:45:05.546Z,21.67
2017-09-22T07:47:34.627Z,19.05
2017-09-22T07:50:04.395Z,22.17
2017-09-22T07:52:32.666Z,17.48
2017-09-22T07:55:00.872Z,18.23
2017-09-22T07:57:29.205Z,17.55
2017-09-22T07:59:57.438Z,18.10
2017-09-22T08:02:26.415Z,19.98
2017-09-22T08:04:54.697Z,20.20
2017-09-22T08:07:22.996Z,21.15
2017-09-22T08:09:51.610Z,19.45
2017-09-22T08:12:19.865Z,19.17
2017-09-22T08:14:48.142Z,20.23
2017-09-22T08:17:16.387Z,18.73
2017-09-22T08:19:45.384Z,18.77
2017-09-22T08:22:14.375Z,17.80
2017-09-22T08:24:43.405Z,20.37
2017-09-22T08:27:11.990Z,19.37
2017-09-22T08:29:40.277Z,18.05
2017-09-22T08:32:08.595Z,17.75
2017-09-22T08:34:37.580Z,16.50
2017-09-22T08:37:05.812Z,18.02
2017-09-22T08:39:34.074Z,18.00
2017-09-22T08:42:02.315Z,17.42
2017-09-22T08:44:32.681Z,20.02
2017-09-22T08:47:01.937Z,18.35
2017-09-22T08:49:30.961Z,16.67
2017-09-22T08:51:59.213Z,16.05
2017-09-22T08:54:27.456Z,16.08
2017-09-22T08:56:55.789Z,14.45
2017-09-22T08:59:24.849Z,15.48
2017-09-22T09:01:53.167Z,15.80
2017-09-22T09:04:21.405Z,15.75
2017-09-22T09:06:49.669Z,14.18
2017-09-22T09:09:18.656Z,16.48
2017-09-22T09:11:47.688Z,15.90
2017-09-22T09:14:15.921Z,14.40
2017-09-22T09:16:44.208Z,14.00
2017-09-22T09:19:13.184Z,14.68
2017-09-22T09:21:41.858Z,12.30
2017-09-22T09:24:10.235Z,13.00
2017-09-22T09:26:38.553Z,11.60
2017-09-22T09:29:06.804Z,14.05
2017-09-22T09:31:36.292Z,13.88
2017-09-22T09:34:04.604Z,12.55
2017-09-22T09:36:32.862Z,10.27
2017-09-22T09:39:01.121Z,11.80
2017-09-22T09:41:29.340Z,11.98
2017-09-22T09:43:57.725Z,13.45
2017-09-22T09:46:26.011Z,10.68
2017-09-22T09:48:54.641Z,9.63
2017-09-22T09:51:22.888Z,9.05
2017-09-22T09:53:52.259Z,8.65
2017-09-22T09:56:21.476Z,8.07
2017-09-22T09:58:50.553Z,8.90
2017-09-22T10:01:18.755Z,8.82
2017-09-22T10:03:47.032Z,8.88
2017-09-22T10:06:15.255Z,8.02
2017-09-22T10:08:43.516Z,11.70
2017-09-22T10:11:12.518Z,12.18
2017-09-22T10:13:42.265Z,8.77
2017-09-22T10:16:10.471Z,9.13
2017-09-22T10:18:38.716Z,11.12
2017-09-22T10:21:09.913Z,10.50
2017-09-22T10:23:38.924Z,10.85
2017-09-22T10:26:07.175Z,8.00
2017-09-22T10:28:36.158Z,9.32
2017-09-22T10:31:04.390Z,8.20
2017-09-22T10:33:32.634Z,8.35
2017-09-22T10:36:00.901Z,7.60
2017-09-22T10:38:29.907Z,7.95
2017-09-22T10:40:59.336Z,8.57
2017-09-22T10:43:27.701Z,8.20
2017-09-22T10:45:56.961Z,8.05
2017-09-22T10:48:25.292Z,7.65
2017-09-22T10:53:28.196Z,7.30
2017-09-22T10:55:56.575Z,6.93
2017-09-22T10:58:24.910Z,8.40
2017-09-22T11:00:53.322Z,8.48
2017-09-22T11:03:22.244Z,8.20
2017-09-22T11:05:50.613Z,8.27
2017-09-22T11:08:19.731Z,7.05
2017-09-22T11:10:48.024Z,7.65
2017-09-22T11:13:18.398Z,8.48
2017-09-22T11:15:46.753Z,8.13
2017-09-22T11:18:15.944Z,7.57
2017-09-22T11:20:45.103Z,8.85
2017-09-22T11:23:14.909Z,7.93
2017-09-22T11:25:43.365Z,7.47
2017-09-22T11:28:13.201Z,8.20
2017-09-22T11:30:41.634Z,8.45
2017-09-22T11:33:10.036Z,7.53
2017-09-22T11:35:38.434Z,7.95
2017-09-22T11:38:06.835Z,8.07
2017-09-22T11:40:35.252Z,7.65
2017-09-22T11:43:05.333Z,6.50
2017-09-22T11:45:34.314Z,10.10
2017-09-22T11:48:02.762Z,6.68
2017-09-22T11:50:31.329Z,6.97
2017-09-22T11:53:00.936Z,8.60
2017-09-22T11:55:30.285Z,8.40
2017-09-22T11:57:58.620Z,11.40
2017-09-22T12:00:29.566Z,7.75
2017-09-22T12:03:00.301Z,6.50
2017-09-22T12:05:29.309Z,7.57
2017-09-22T12:07:58.640Z,7.68
2017-09-22T12:10:27.892Z,7.60
2017-09-22T12:12:56.349Z,5.95
2017-09-22T12:15:24.745Z,7.93
2017-09-22T12:17:53.127Z,7.80
2017-09-22T12:20:21.553Z,8.00
2017-09-22T12:22:49.916Z,8.98
2017-09-22T12:25:18.963Z,9.13
2017-09-22T12:27:47.257Z,8.10
2017-09-22T12:30:15.571Z,8.23
2017-09-22T12:32:44.722Z,8.43
2017-09-22T12:35:13.113Z,8.77
2017-09-22T12:37:41.518Z,7.62
2017-09-22T12:40:11.556Z,7.65
2017-09-22T12:42:39.923Z,8.20
2017-09-22T12:45:08.223Z,6.35
2017-09-22T12:47:39.536Z,7.22
2017-09-22T12:50:08.019Z,7.80
2017-09-22T12:52:36.459Z,7.62
2017-09-22T12:55:04.740Z,6.40
2017-09-22T12:57:34.689Z,7.60
2017-09-22T13:00:06.541Z,6.62
2017-09-22T13:02:34.954Z,7.20
2017-09-22T13:05:03.801Z,8.15
2017-09-22T13:07:32.823Z,6.62
2017-09-22T13:10:01.143Z,7.70
2017-09-22T13:12:29.399Z,8.27
2017-09-22T13:14:57.715Z,7.75
2017-09-22T13:17:26.802Z,7.32
2017-09-22T13:19:55.074Z,7.30
2017-09-22T13:22:24.159Z,7.47
2017-09-22T13:24:52.522Z,7.00
2017-09-22T13:27:20.829Z,8.65
2017-09-22T13:32:24.480Z,7.28
2017-09-22T13:34:53.775Z,7.37
2017-09-22T13:37:22.300Z,7.40
2017-09-22T13:39:52.928Z,7.20
2017-09-22T13:42:23.453Z,7.20
2017-09-22T13:44:51.882Z,7.50
2017-09-22T13:47:20.315Z,8.20
2017-09-22T13:49:48.725Z,7.70
2017-09-22T13:52:17.505Z,6.78
2017-09-22T13:54:45.975Z,8.02
2017-09-22T13:57:15.652Z,7.28
2017-09-22T13:59:44.065Z,7.32
2017-09-22T14:02:12.899Z,8.00
2017-09-22T14:04:42.198Z,7.22
2017-09-22T14:07:13.165Z,7.62
2017-09-22T14:09:52.912Z,7.45
2017-09-22T14:12:21.324Z,7.90
2017-09-22T14:14:50.667Z,7.70
2017-09-22T14:17:19.768Z,8.90
2017-09-22T14:19:49.213Z,8.63
2017-09-22T14:22:18.484Z,10.40
2017-09-22T14:24:47.422Z,6.22
2017-09-22T14:27:17.148Z,8.25
2017-09-22T14:29:45.476Z,10.77
2017-09-22T14:32:13.869Z,10.65
2017-09-22T14:34:43.098Z,11.07
2017-09-22T14:37:13.081Z,13.00
2017-09-22T14:39:44.520Z,16.83
2017-09-22T14:42:13.606Z,10.05
2017-09-22T14:44:42.083Z,12.98
2017-09-22T14:47:11.814Z,12.02
2017-09-22T14:49:40.101Z,9.88
2017-09-22T14:52:09.934Z,14.20
2017-09-22T14:54:38.994Z,11.27
2017-09-22T14:57:09.764Z,14.07
2017-09-22T14:59:43.296Z,13.85
2017-09-22T15:02:12.844Z,9.90
2017-09-22T15:04:41.119Z,13.62
2017-09-22T15:07:10.155Z,9.20
2017-09-22T15:09:38.492Z,9.98
2017-09-22T15:12:11.400Z,11.07
2017-09-22T15:14:39.699Z,11.52
2017-09-22T15:17:07.911Z,10.93
2017-09-22T15:19:36.538Z,11.60
2017-09-22T15:22:04.752Z,8.93
2017-09-22T15:24:32.979Z,9.15
2017-09-22T15:27:02.684Z,8.90
2017-09-22T15:29:30.938Z,9.00
2017-09-22T15:31:59.171Z,8.45
2017-09-22T15:34:28.056Z,11.02
2017-09-22T15:36:56.358Z,8.40
2017-09-22T15:39:24.632Z,9.32
2017-09-22T15:41:53.016Z,10.07
2017-09-22T15:44:21.299Z,11.32
2017-09-22T15:46:50.448Z,8.18
2017-09-22T15:49:18.746Z,8.30
2017-09-22T15:51:47.876Z,9.20
2017-09-22T15:54:16.241Z,8.30
2017-09-22T15:56:44.491Z,8.73
2017-09-22T15:59:12.753Z,7.80
2017-09-22T16:01:41.006Z,7.97
2017-09-22T16:04:09.294Z,8.10
2017-09-22T16:06:41.573Z,7.75
2017-09-22T16:09:15.298Z,7.62
2017-09-22T16:11:43.649Z,7.60
2017-09-22T16:14:12.110Z,9.48
2017-09-22T16:16:40.411Z,7.50
2017-09-22T16:19:08.682Z,7.35
2017-09-22T16:21:36.916Z,7.40
2017-09-22T16:24:05.962Z,7.43
2017-09-22T16:26:34.257Z,7.45
2017-09-22T16:29:02.496Z,7.57
2017-09-22T16:31:30.794Z,7.40
2017-09-22T16:33:59.023Z,8.32
2017-09-22T16:36:27.598Z,7.68
2017-09-22T16:38:55.822Z,7.82
2017-09-22T16:41:24.011Z,6.82
2017-09-22T16:43:52.923Z,7.20
2017-09-22T16:46:21.945Z,7.28
2017-09-22T16:48:50.182Z,7.25
2017-09-22T16:51:18.469Z,7.60
2017-09-22T16:53:47.440Z,7.82
2017-09-22T16:56:15.745Z,7.82
2017-09-22T16:58:44.745Z,8.05
2017-09-22T17:01:13.077Z,7.35
2017-09-22T17:03:43.628Z,7.50
2017-09-22T17:06:11.890Z,7.12
2017-09-22T17:08:40.552Z,7.90
2017-09-22T17:11:08.857Z,7.30
2017-09-22T17:13:37.134Z,7.90
2017-09-22T17:16:05.360Z,6.50
2017-09-22T17:18:33.571Z,7.18
2017-09-22T17:21:01.923Z,7.60
2017-09-22T17:23:30.521Z,7.37
2017-09-22T17:25:58.911Z,7.93
2017-09-22T17:28:27.121Z,8.20
2017-09-22T17:30:55.534Z,8.35
2017-09-22T17:33:24.161Z,8.57
2017-09-22T17:35:53.121Z,7.62
2017-09-22T17:38:21.310Z,8.77
2017-09-22T17:40:49.703Z,9.80
2017-09-22T17:43:18.639Z,10.85
2017-09-22T17:45:46.878Z,10.32
2017-09-22T17:48:15.156Z,10.57
2017-09-22T17:50:44.181Z,9.18
2017-09-22T17:53:13.581Z,9.25
2017-09-22T17:55:41.804Z,9.02
2017-09-22T17:58:10.856Z,10.35
2017-09-22T18:00:39.073Z,10.57
2017-09-22T18:03:09.730Z,10.13
2017-09-22T18:05:38.911Z,10.77
2017-09-22T18:08:07.925Z,8.63
2017-09-22T18:10:36.203Z,10.05
2017-09-22T18:13:04.972Z,10.48
2017-09-22T18:15:33.609Z,9.50
2017-09-22T18:18:01.831Z,10.45
2017-09-22T18:20:30.705Z,11.05
2017-09-22T18:23:01.621Z,11.12
2017-09-22T18:25:30.003Z,11.25
2017-09-22T18:27:58.277Z,10.55
2017-09-22T18:30:26.546Z,10.30
2017-09-22T18:32:55.058Z,11.07
2017-09-22T18:35:23.290Z,12.37
2017-09-22T18:37:52.460Z,10.43
2017-09-22T18:40:20.789Z,11.10
2017-09-22T18:42:49.010Z,11.65
2017-09-22T18:45:18.005Z,10.57
2017-09-22T18:47:47.168Z,11.40
2017-09-22T18:50:15.375Z,10.90
2017-09-22T18:55:50.338Z,11.00
2017-09-22T19:12:13.536Z,10.80
2017-09-22T19:17:36.097Z,12.98
2017-09-22T19:20:05.098Z,12.75
2017-09-22T19:22:34.546Z,11.50
2017-09-22T19:25:04.012Z,12.68
2017-09-22T19:27:32.311Z,13.35
2017-09-22T19:30:01.521Z,12.30
2017-09-22T19:32:30.546Z,11.00
2017-09-22T19:34:58.906Z,10.13
2017-09-22T19:37:27.190Z,10.13
2017-09-22T19:39:55.972Z,9.18
2017-09-22T19:42:24.310Z,9.60
2017-09-22T19:44:52.503Z,9.90
2017-09-22T19:47:20.733Z,9.25
2017-09-22T19:49:49.009Z,8.27
2017-09-22T19:52:17.302Z,8.85
2017-09-22T19:54:46.421Z,7.78
2017-09-22T19:57:14.732Z,8.07
2017-09-22T19:59:43.762Z,8.40
2017-09-22T20:02:12.106Z,8.18
2017-09-22T20:04:41.213Z,7.60
2017-09-22T20:07:09.620Z,7.55
2017-09-22T20:09:37.951Z,7.80
2017-09-22T20:12:07.038Z,8.23
2017-09-22T20:14:35.320Z,6.87
2017-09-22T20:17:04.458Z,7.07
2017-09-22T20:19:32.844Z,7.28
2017-09-22T20:22:01.247Z,8.10
2017-09-22T20:28:07.406Z,8.60
2017-09-22T20:33:17.822Z,7.25
2017-09-22T20:35:46.877Z,6.18
2017-09-22T20:38:15.293Z,7.60
2017-09-22T20:40:44.898Z,6.37
2017-09-22T20:43:15.342Z,7.05
2017-09-22T20:45:45.593Z,7.78
2017-09-22T20:48:15.134Z,6.07
2017-09-22T20:50:43.616Z,5.90
2017-09-22T20:53:12.748Z,6.93
2017-09-22T20:55:46.288Z,6.72
2017-09-22T20:58:17.219Z,8.25
2017-09-22T21:00:45.705Z,6.30
2017-09-22T21:03:14.103Z,6.30
2017-09-22T21:05:43.433Z,6.32
2017-09-22T21:08:11.775Z,6.05
2017-09-22T21:10:40.139Z,6.93
2017-09-22T21:13:08.607Z,5.75
2017-09-22T21:15:36.915Z,6.05
2017-09-22T21:18:06.168Z,6.80
2017-09-22T21:20:34.547Z,5.80
2017-09-22T21:23:02.848Z,6.70
2017-09-22T21:25:31.342Z,6.45
2017-09-22T21:28:00.002Z,5.70
2017-09-22T21:30:28.309Z,6.45
2017-09-22T21:32:56.625Z,5.18
2017-09-22T21:35:25.663Z,6.05
2017-09-22T21:37:54.014Z,5.85
2017-09-22T21:40:22.294Z,5.62
2017-09-22T21:42:57.109Z,7.62
2017-09-22T21:45:25.841Z,5.82
2017-09-22T21:47:54.581Z,5.43
2017-09-22T21:50:22.940Z,5.22
2017-09-22T21:52:52.930Z,5.60
2017-09-22T21:55:21.237Z,5.35
2017-09-22T21:57:51.540Z,6.00
2017-09-22T22:00:23.025Z,5.60
2017-09-22T22:02:51.686Z,5.50
2017-09-22T22:05:26.256Z,5.80
2017-09-22T22:07:55.070Z,5.32
2017-09-22T22:10:23.376Z,6.03
2017-09-22T22:12:52.423Z,5.62
2017-09-22T22:15:20.661Z,5.37
2017-09-22T22:17:48.950Z,5.20
2017-09-22T22:20:17.579Z,5.90
2017-09-22T22:22:45.872Z,5.62
2017-09-22T22:25:14.881Z,5.32
2017-09-22T22:27:43.161Z,6.53
2017-09-22T22:30:12.180Z,5.65
2017-09-22T22:32:40.492Z,5.65
2017-09-22T22:35:08.758Z,5.90
2017-09-22T22:37:37.417Z,6.37
2017-09-22T22:40:05.728Z,6.47
2017-09-22T22:42:33.953Z,5.97
2017-09-22T22:45:02.169Z,6.00
2017-09-22T22:47:30.461Z,5.85
2017-09-22T22:49:58.719Z,5.82
2017-09-22T22:52:26.924Z,6.20
2017-09-22T22:54:56.924Z,5.78
2017-09-22T22:57:25.159Z,5.62
2017-09-22T22:59:53.349Z,5.72
2017-09-22T23:02:21.577Z,5.57
2017-09-22T23:04:50.567Z,5.37
2017-09-22T23:07:19.547Z,5.93
2017-09-22T23:09:48.527Z,5.80
2017-09-22T23:12:16.755Z,5.15
2017-09-22T23:14:44.960Z,6.05
2017-09-22T23:17:13.305Z,9.18
2017-09-22T23:19:41.528Z,5.50
2017-09-22T23:22:09.734Z,6.53
2017-09-22T23:24:37.970Z,4.80
2017-09-22T23:27:06.194Z,5.32
2017-09-22T23:29:34.388Z,5.37
2017-09-22T23:32:02.619Z,5.87
2017-09-22T23:34:30.838Z,5.93
2017-09-22T23:36:59.100Z,5.90
2017-09-22T23:39:28.055Z,5.95
2017-09-22T23:41:57.015Z,5.93
2017-09-22T23:44:25.242Z,5.82
2017-09-22T23:46:53.423Z,5.68
2017-09-22T23:49:21.620Z,6.03
2017-09-22T23:51:49.835Z,5.95
2017-09-22T23:54:19.260Z,5.80
2017-09-22T23:56:47.504Z,6.75
2017-09-22T23:59:15.701Z,6.03
